Ana Sayfa
METAR-TAF:

METAR-TAF

Havaalanları :

Sinop Havalimanı

Sinop, Türkiye

Enlem: 42-00-57N, Boylam: 035-03-59E, yükseklik: 7 m

Güncel hava durumu gözlemi

Rapor saat 11:50 UTC de 8 saat ve 59 dakika önce yapıldı.
Rüzgar batıdan 15 kt
Sıcaklık 23°C
Nem 61%
Basınç 1017 hPa
Görüş mesafesi 10 km veya daha fazla
3000 ft yükseklikte az bulutlu
9000 ft yükseklikte parçalı bulutlu

METAR: LTCM 231150Z 28015KT 9999 FEW030 SCT090 23/15 Q1017

Saat: 23:49 (20:49 UTC)

Tahmin

Rapor saat 13:40 UTC de 7 saat ve 9 dakika önce yapıldı.
Ayın 23'si saat 15 UTC'den ayın 23'si saat 24 UTC'ye kadar geçerli Tahmin
Rüzgar batıdan 11 kt
Görüş mesafesi 10 km veya daha fazla
3600 ft yükseklikte az bulutlu

TAF: LTCM 231340Z 2315/2324 28011KT 9999 FEW036

4.000'den fazla havaalanı için hava durumu gözlemleri ve tahminleri (METAR ve TAF raporları).

Kullanılabilir istasyonlar harita üzerinde sarı ve kırmızı noktalarla gösterilir.

İstasyonun adını görmek için fareyi noktanın üzerinde gezdirin.

Sonrasında hava gözlem ve tahminlerini görmek için tıklayın.

Haritayı değiştirmek için: yaklaştırmak için siyah artı işaretli yeşil düğmeye ve uzaklaştırmak için de eksi işaretli düğmeye hızla tıklayın; bitişik haritalar için yeşil okları kullanın.


METAR-TAF: